KCXY

Capital City Airport

Harrisburg, Pennsylvania, USA
METAR KCXY 170756Z AUTO 28005KT 10SM OVC025 07/03 A2986 RMK AO2 SLP113 T00670033
Observed Flight Rules
Dec-17 @ 07:56 UTC (38 minutes ago) Marginal Visual Flight Rules
Wind Visibility Clouds
280° at 5 knots 10 miles
  • Overcast at 2,500' AGL
Temperatures Readings
Current 7°C / 45°F
Dewpoint 3°C / 37°F
Humidity 76%
Altimeter 29.86" Hg
Pressure 1011.3 hPa
Elevation 106
METAR KCXY 170756Z AUTO 28005KT 10SM OVC025 07/03 A2986 RMK AO2 SLP113 T00670033
Observed Flight Rules
Dec-17 @ 07:56 UTC
(38 minutes ago)
MVFR
Wind Visibility
280° at 5 knots 10 miles
Clouds
  • Overcast at 2,500' AGL
Temperature Dewpoint
7°C / 45°F 3°C / 37°F
Humidity Altimeter Pressure
76% 29.86" Hg 1011.3 hPa